createdAt,value
2022-11-27T00:00:38.650Z,10.10
2022-11-27T00:02:41.660Z,9.13
2022-11-27T00:04:45.810Z,9.20
2022-11-27T00:06:48.523Z,9.83
2022-11-27T00:08:51.638Z,10.30
2022-11-27T00:10:54.400Z,9.83
2022-11-27T00:12:57.091Z,9.77
2022-11-27T00:14:59.862Z,9.70
2022-11-27T00:17:02.927Z,10.00
2022-11-27T00:19:05.717Z,9.73
2022-11-27T00:21:12.508Z,9.73
2022-11-27T00:23:15.194Z,9.50
2022-11-27T00:25:18.333Z,10.07
2022-11-27T00:27:21.299Z,9.73
2022-11-27T00:29:23.962Z,10.17
2022-11-27T00:31:29.470Z,9.03
2022-11-27T00:33:32.917Z,8.67
2022-11-27T00:35:35.663Z,8.70
2022-11-27T00:37:39.827Z,8.93
2022-11-27T00:39:42.591Z,9.27
2022-11-27T00:41:46.207Z,9.93
2022-11-27T00:43:49.689Z,9.70
2022-11-27T00:45:52.658Z,9.00
2022-11-27T00:47:55.991Z,8.43
2022-11-27T00:49:58.703Z,8.70
2022-11-27T00:52:01.393Z,8.47
2022-11-27T00:54:05.996Z,8.40
2022-11-27T00:56:09.570Z,8.87
2022-11-27T00:58:12.467Z,9.37
2022-11-27T01:00:16.587Z,8.47
2022-11-27T01:02:19.343Z,8.87
2022-11-27T01:04:22.296Z,9.20
2022-11-27T01:06:26.240Z,8.53
2022-11-27T01:08:29.158Z,9.20
2022-11-27T01:10:33.252Z,9.43
2022-11-27T01:12:36.044Z,9.43
2022-11-27T01:14:39.810Z,9.87
2022-11-27T01:16:43.523Z,9.60
2022-11-27T01:18:48.062Z,10.23
2022-11-27T01:20:54.206Z,9.80
2022-11-27T01:22:57.126Z,9.47
2022-11-27T01:24:59.828Z,10.13
2022-11-27T01:27:03.916Z,10.23
2022-11-27T01:29:06.650Z,10.17
2022-11-27T01:31:13.817Z,10.33
2022-11-27T01:33:17.504Z,9.87
2022-11-27T01:35:20.215Z,10.30
2022-11-27T01:37:23.037Z,9.57
2022-11-27T01:39:25.954Z,10.20
2022-11-27T01:41:30.362Z,9.63
2022-11-27T01:43:45.835Z,9.80
2022-11-27T01:45:48.555Z,8.93
2022-11-27T01:47:54.557Z,9.43
2022-11-27T01:50:06.093Z,9.37
2022-11-27T01:52:13.406Z,9.30
2022-11-27T01:54:18.090Z,9.07
2022-11-27T01:56:21.898Z,9.23
2022-11-27T01:58:28.381Z,9.87
2022-11-27T02:00:32.474Z,9.63
2022-11-27T02:02:35.269Z,9.43
2022-11-27T02:04:38.866Z,8.73
2022-11-27T02:06:41.961Z,8.67
2022-11-27T02:08:45.214Z,8.80
2022-11-27T02:10:51.163Z,9.67
2022-11-27T02:12:59.060Z,9.47
2022-11-27T02:15:10.182Z,9.67
2022-11-27T02:17:21.316Z,9.87
2022-11-27T02:19:33.377Z,9.40
2022-11-27T02:21:45.390Z,10.13
2022-11-27T02:24:03.160Z,9.93
2022-11-27T02:26:37.601Z,9.80
2022-11-27T02:28:56.011Z,10.37
2022-11-27T02:31:04.931Z,10.63
2022-11-27T02:33:12.216Z,9.80
2022-11-27T02:35:20.798Z,9.80
2022-11-27T02:37:29.879Z,10.70
2022-11-27T02:39:40.289Z,10.20
2022-11-27T02:41:48.127Z,9.83
2022-11-27T02:43:52.862Z,10.50
2022-11-27T02:45:58.734Z,9.97
2022-11-27T02:48:01.475Z,11.33
2022-11-27T02:50:06.543Z,10.13
2022-11-27T02:52:10.243Z,10.10
2022-11-27T02:54:18.496Z,10.40
2022-11-27T02:56:24.120Z,10.83
2022-11-27T02:58:30.094Z,9.23
2022-11-27T03:00:35.128Z,11.30
2022-11-27T03:02:46.008Z,11.60
2022-11-27T03:04:52.842Z,9.90
2022-11-27T03:07:01.082Z,10.93
2022-11-27T03:09:08.240Z,10.07
2022-11-27T03:11:12.375Z,10.53
2022-11-27T03:13:15.270Z,10.87
2022-11-27T03:15:18.490Z,10.53
2022-11-27T03:17:33.591Z,11.33
2022-11-27T03:19:43.831Z,10.43
2022-11-27T03:21:51.494Z,11.17
2022-11-27T03:23:54.469Z,10.83
2022-11-27T03:25:57.378Z,10.00
2022-11-27T03:28:03.666Z,9.73
2022-11-27T03:30:08.300Z,10.17
2022-11-27T03:32:11.293Z,10.37
2022-11-27T03:34:14.201Z,10.20
2022-11-27T03:36:21.294Z,10.03
2022-11-27T03:38:24.162Z,10.30
2022-11-27T03:40:35.908Z,11.00
2022-11-27T03:42:49.750Z,10.87
2022-11-27T03:45:01.021Z,10.50
2022-11-27T03:47:12.944Z,10.77
2022-11-27T03:49:24.344Z,10.87
2022-11-27T03:51:35.523Z,10.60
2022-11-27T03:53:50.561Z,11.10
2022-11-27T03:56:04.244Z,12.00
2022-11-27T03:58:17.278Z,11.20
2022-11-27T04:00:20.402Z,11.77
2022-11-27T04:02:31.636Z,12.00
2022-11-27T04:04:34.508Z,12.90
2022-11-27T04:06:38.596Z,12.23
2022-11-27T04:08:41.724Z,12.50
2022-11-27T04:10:44.585Z,14.00
2022-11-27T04:12:47.626Z,14.33
2022-11-27T04:14:50.334Z,13.70
2022-11-27T04:16:53.040Z,14.00
2022-11-27T04:18:55.789Z,14.57
2022-11-27T04:20:58.729Z,15.10
2022-11-27T04:23:02.811Z,15.43
2022-11-27T04:25:06.379Z,14.47
2022-11-27T04:27:09.286Z,14.20
2022-11-27T04:29:12.058Z,15.20
2022-11-27T04:31:14.965Z,15.13
2022-11-27T04:33:17.749Z,14.67
2022-11-27T04:35:20.543Z,15.47
2022-11-27T04:37:23.417Z,14.47
2022-11-27T04:39:27.653Z,15.67
2022-11-27T04:41:30.607Z,15.17
2022-11-27T04:43:33.725Z,15.03
2022-11-27T04:45:37.032Z,15.17
2022-11-27T04:47:40.061Z,14.43
2022-11-27T04:49:42.903Z,15.30
2022-11-27T04:51:45.726Z,15.37
2022-11-27T04:53:48.641Z,14.60
2022-11-27T04:55:53.822Z,15.10
2022-11-27T04:57:56.809Z,15.33
2022-11-27T04:59:59.504Z,14.67
2022-11-27T05:02:02.214Z,14.80
2022-11-27T05:04:05.468Z,14.23
2022-11-27T05:06:09.029Z,14.40
2022-11-27T05:08:11.783Z,14.27
2022-11-27T05:10:14.602Z,15.63
2022-11-27T05:12:18.651Z,15.43
2022-11-27T05:14:22.632Z,14.90
2022-11-27T05:16:25.433Z,14.57
2022-11-27T05:18:28.265Z,14.13
2022-11-27T05:20:30.942Z,14.03
2022-11-27T05:22:33.730Z,15.07
2022-11-27T05:24:37.839Z,14.80
2022-11-27T05:26:41.735Z,14.60
2022-11-27T05:28:45.766Z,15.10
2022-11-27T05:30:48.930Z,13.87
2022-11-27T05:32:51.645Z,14.63
2022-11-27T05:34:54.341Z,14.60
2022-11-27T05:36:57.177Z,14.53
2022-11-27T05:39:00.673Z,14.47
2022-11-27T05:41:04.094Z,14.53
2022-11-27T05:43:07.027Z,14.80
2022-11-27T05:45:11.871Z,14.63
2022-11-27T05:47:14.691Z,14.83
2022-11-27T05:49:17.731Z,14.43
2022-11-27T05:51:20.670Z,14.30
2022-11-27T05:53:23.413Z,14.93
2022-11-27T05:55:26.137Z,14.80
2022-11-27T05:57:30.817Z,14.83
2022-11-27T05:59:33.529Z,15.57
2022-11-27T06:01:37.659Z,14.97
2022-11-27T06:03:40.604Z,14.70
2022-11-27T06:05:43.383Z,15.80
2022-11-27T06:07:46.287Z,15.87
2022-11-27T06:09:49.089Z,15.37
2022-11-27T06:11:51.823Z,15.50
2022-11-27T06:13:54.565Z,14.40
2022-11-27T06:15:57.309Z,14.87
2022-11-27T06:18:01.373Z,15.10
2022-11-27T06:20:04.650Z,15.47
2022-11-27T06:22:07.522Z,15.70
2022-11-27T06:24:11.654Z,15.73
2022-11-27T06:26:16.681Z,15.30
2022-11-27T06:28:22.333Z,15.13
2022-11-27T06:30:25.030Z,14.70
2022-11-27T06:32:27.786Z,15.77
2022-11-27T06:34:32.213Z,15.30
2022-11-27T06:36:36.655Z,15.30
2022-11-27T06:38:40.194Z,15.07
2022-11-27T06:40:42.962Z,15.07
2022-11-27T06:42:45.658Z,16.37
2022-11-27T06:44:48.667Z,16.03
2022-11-27T06:46:51.622Z,15.23
2022-11-27T06:48:55.744Z,16.17
2022-11-27T06:51:01.937Z,17.17
2022-11-27T06:53:04.852Z,16.13
2022-11-27T06:55:08.227Z,15.67
2022-11-27T06:57:11.213Z,16.47
2022-11-27T06:59:15.179Z,16.23
2022-11-27T07:01:18.765Z,15.53
2022-11-27T07:03:21.644Z,16.67
2022-11-27T07:05:25.232Z,16.07
2022-11-27T07:07:29.340Z,16.37
2022-11-27T07:09:32.113Z,15.70
2022-11-27T07:11:35.304Z,17.80
2022-11-27T07:13:38.069Z,16.90
2022-11-27T07:15:40.798Z,17.03
2022-11-27T07:17:43.695Z,16.93
2022-11-27T07:19:46.965Z,17.33
2022-11-27T07:21:49.697Z,17.50
2022-11-27T07:23:54.006Z,17.97
2022-11-27T07:25:56.907Z,17.10
2022-11-27T07:27:59.642Z,18.87
2022-11-27T07:30:02.433Z,18.00
2022-11-27T07:32:05.495Z,17.30
2022-11-27T07:34:14.100Z,17.43
2022-11-27T07:36:21.148Z,16.83
2022-11-27T07:38:24.159Z,17.00
2022-11-27T07:40:28.281Z,17.40
2022-11-27T07:42:38.029Z,17.50
2022-11-27T07:44:42.043Z,17.90
2022-11-27T07:46:44.964Z,18.67
2022-11-27T07:48:48.041Z,18.07
2022-11-27T07:50:50.775Z,16.73
2022-11-27T07:52:53.462Z,16.67
2022-11-27T07:54:56.420Z,17.67
2022-11-27T07:57:00.618Z,17.00
2022-11-27T07:59:03.466Z,17.83
2022-11-27T08:01:08.451Z,17.20
2022-11-27T08:03:11.821Z,16.90
2022-11-27T08:05:14.885Z,15.97
2022-11-27T08:07:17.755Z,16.20
2022-11-27T08:09:20.573Z,15.57
2022-11-27T08:11:25.256Z,16.20
2022-11-27T08:13:29.302Z,15.23
2022-11-27T08:15:32.054Z,15.07
2022-11-27T08:17:35.056Z,15.67
2022-11-27T08:19:37.927Z,15.77
2022-11-27T08:21:40.781Z,15.67
2022-11-27T08:23:43.551Z,15.07
2022-11-27T08:25:46.455Z,16.57
2022-11-27T08:27:49.474Z,18.03
2022-11-27T08:29:53.747Z,16.43
2022-11-27T08:31:56.744Z,16.00
2022-11-27T08:34:00.109Z,13.73
2022-11-27T08:36:03.546Z,13.73
2022-11-27T08:38:06.290Z,14.20
2022-11-27T08:40:10.332Z,14.50
2022-11-27T08:42:13.417Z,13.80
2022-11-27T08:44:16.342Z,13.80
2022-11-27T08:46:20.431Z,13.57
2022-11-27T08:48:24.062Z,12.33
2022-11-27T08:50:26.854Z,12.83
2022-11-27T08:52:29.557Z,13.43
2022-11-27T08:54:32.214Z,12.70
2022-11-27T08:56:35.955Z,13.93
2022-11-27T08:58:40.813Z,12.33
2022-11-27T09:00:43.528Z,13.80
2022-11-27T09:02:47.692Z,13.67
2022-11-27T09:04:50.470Z,13.73
2022-11-27T09:06:58.136Z,13.13
2022-11-27T09:09:03.534Z,13.43
2022-11-27T09:11:07.159Z,12.27
2022-11-27T09:13:09.869Z,13.53
2022-11-27T09:15:13.184Z,13.07
2022-11-27T09:17:17.242Z,11.97
2022-11-27T09:19:21.728Z,12.00
2022-11-27T09:21:27.024Z,12.13
2022-11-27T09:23:30.704Z,12.17
2022-11-27T09:25:33.406Z,12.17
2022-11-27T09:27:37.026Z,11.73
2022-11-27T09:29:39.790Z,12.57
2022-11-27T09:31:42.612Z,12.30
2022-11-27T09:33:46.131Z,11.80
2022-11-27T09:35:50.308Z,11.73
2022-11-27T09:37:53.021Z,11.03
2022-11-27T09:39:56.264Z,12.20
2022-11-27T09:42:01.682Z,11.47
2022-11-27T09:44:13.513Z,11.80
2022-11-27T09:46:27.254Z,11.10
2022-11-27T09:48:36.258Z,11.50
2022-11-27T09:50:49.969Z,11.83
2022-11-27T09:52:57.706Z,11.03
2022-11-27T09:55:04.782Z,10.20
2022-11-27T09:57:08.193Z,11.20
2022-11-27T09:59:19.170Z,10.70
2022-11-27T10:01:32.093Z,10.07
2022-11-27T10:03:41.298Z,9.67
2022-11-27T10:05:52.770Z,10.17
2022-11-27T10:08:20.960Z,10.07
2022-11-27T10:10:35.033Z,9.67
2022-11-27T10:12:50.494Z,10.17
2022-11-27T10:15:03.705Z,9.33
2022-11-27T10:17:12.494Z,10.37
2022-11-27T10:19:28.382Z,11.63
2022-11-27T10:21:39.295Z,9.77
2022-11-27T10:23:49.361Z,10.17
2022-11-27T10:25:55.691Z,10.23
2022-11-27T10:28:11.830Z,10.40
2022-11-27T10:30:17.335Z,9.97
2022-11-27T10:32:53.480Z,9.90
2022-11-27T10:34:48.550Z,9.60
2022-11-27T10:36:53.402Z,10.30
2022-11-27T10:39:00.342Z,9.97
2022-11-27T10:41:12.133Z,10.23
2022-11-27T10:43:23.169Z,9.90
2022-11-27T10:45:30.673Z,10.60
2022-11-27T10:47:34.215Z,9.77
2022-11-27T10:49:40.563Z,10.63
2022-11-27T10:51:43.272Z,9.77
2022-11-27T10:53:48.980Z,9.63
2022-11-27T10:56:15.505Z,9.13
2022-11-27T10:58:24.686Z,10.10
2022-11-27T11:00:27.796Z,9.57
2022-11-27T11:02:33.080Z,9.40
2022-11-27T11:04:38.710Z,9.47
2022-11-27T11:06:44.388Z,9.53
2022-11-27T11:08:47.495Z,9.43
2022-11-27T11:10:53.593Z,10.30
2022-11-27T11:13:18.961Z,10.20
2022-11-27T11:15:22.017Z,9.70
2022-11-27T11:17:27.251Z,8.63
2022-11-27T11:19:32.268Z,9.73
2022-11-27T11:21:39.166Z,11.00
2022-11-27T11:23:42.206Z,9.70
2022-11-27T11:25:51.241Z,8.73
2022-11-27T11:27:54.281Z,9.60
2022-11-27T11:30:01.570Z,9.47
2022-11-27T11:32:10.043Z,10.33
2022-11-27T11:34:20.822Z,8.57
2022-11-27T11:36:23.590Z,8.40
2022-11-27T11:38:32.059Z,8.73
2022-11-27T11:40:37.448Z,9.13
2022-11-27T11:42:53.089Z,9.33
2022-11-27T11:45:05.770Z,8.90
2022-11-27T11:47:18.456Z,8.63
2022-11-27T11:49:25.666Z,8.23
2022-11-27T11:51:46.186Z,7.10
2022-11-27T11:53:58.358Z,7.43
2022-11-27T11:56:10.125Z,7.60
2022-11-27T11:58:31.265Z,6.97
2022-11-27T12:01:04.896Z,7.37
2022-11-27T12:03:24.422Z,7.93
2022-11-27T12:05:38.089Z,8.33
2022-11-27T12:07:57.265Z,8.07
2022-11-27T12:10:08.921Z,7.40
2022-11-27T12:12:25.475Z,6.63
2022-11-27T12:14:42.148Z,6.67
2022-11-27T12:17:01.415Z,6.87
2022-11-27T12:19:23.419Z,6.13
2022-11-27T12:21:35.887Z,6.33
2022-11-27T12:23:50.171Z,6.40
2022-11-27T12:26:03.909Z,6.37
2022-11-27T12:28:20.703Z,6.33
2022-11-27T12:30:26.411Z,7.30
2022-11-27T12:32:45.010Z,6.53
2022-11-27T12:35:01.670Z,6.70
2022-11-27T12:37:20.719Z,5.87
2022-11-27T12:39:27.076Z,6.40
2022-11-27T12:41:59.875Z,7.57
2022-11-27T12:44:03.087Z,6.37
2022-11-27T12:46:12.556Z,6.20
2022-11-27T12:48:21.721Z,6.27
2022-11-27T12:50:32.007Z,6.37
2022-11-27T12:52:40.497Z,6.10
2022-11-27T12:54:48.878Z,5.80
2022-11-27T12:56:57.601Z,6.33
2022-11-27T12:59:05.712Z,6.20
2022-11-27T13:01:13.623Z,5.47
2022-11-27T13:03:23.870Z,5.50
2022-11-27T13:05:29.478Z,5.93
2022-11-27T13:07:40.154Z,5.67
2022-11-27T13:09:49.272Z,6.10
2022-11-27T13:11:52.348Z,5.80
2022-11-27T13:13:59.822Z,5.77
2022-11-27T13:16:07.475Z,5.97
2022-11-27T13:18:21.166Z,5.83
2022-11-27T13:20:30.726Z,5.80
2022-11-27T13:22:36.099Z,6.20
2022-11-27T13:24:39.584Z,5.97
2022-11-27T13:26:47.061Z,6.20
2022-11-27T13:28:54.201Z,6.10
2022-11-27T13:31:00.935Z,6.30
2022-11-27T13:33:06.272Z,6.33
2022-11-27T13:35:22.954Z,6.20
2022-11-27T13:37:31.642Z,6.20
2022-11-27T13:39:36.470Z,6.50
2022-11-27T13:41:43.991Z,6.37
2022-11-27T13:43:48.301Z,5.87
2022-11-27T13:45:51.930Z,6.63
2022-11-27T13:47:57.953Z,6.60
2022-11-27T13:50:03.583Z,6.23
2022-11-27T13:52:12.582Z,6.63
2022-11-27T13:54:18.209Z,6.10
2022-11-27T13:56:31.210Z,6.13
2022-11-27T13:58:36.566Z,6.53
2022-11-27T14:00:44.214Z,6.40
2022-11-27T14:02:49.560Z,6.43
2022-11-27T14:04:56.428Z,5.67
2022-11-27T14:07:06.138Z,5.63
2022-11-27T14:09:10.474Z,4.83
2022-11-27T14:11:13.679Z,5.30
2022-11-27T14:13:17.369Z,5.23
2022-11-27T14:15:24.310Z,4.87
2022-11-27T14:17:34.544Z,4.90
2022-11-27T14:19:43.485Z,6.23
2022-11-27T14:21:46.568Z,5.00
2022-11-27T14:23:51.823Z,5.20
2022-11-27T14:26:11.896Z,5.27
2022-11-27T14:28:21.673Z,5.57
2022-11-27T14:30:28.412Z,5.50
2022-11-27T14:32:36.534Z,5.57
2022-11-27T14:34:39.832Z,5.10
2022-11-27T14:36:43.278Z,4.93
2022-11-27T14:38:49.265Z,4.60
2022-11-27T14:40:54.065Z,4.73
2022-11-27T14:43:08.570Z,4.23
2022-11-27T14:45:15.914Z,4.07
2022-11-27T14:47:22.645Z,4.73
2022-11-27T14:49:30.652Z,4.20
2022-11-27T14:51:35.517Z,4.43
2022-11-27T14:53:38.470Z,4.33
2022-11-27T14:55:41.623Z,4.57
2022-11-27T14:57:45.411Z,4.33
2022-11-27T14:59:49.461Z,4.27
2022-11-27T15:02:05.055Z,4.10
2022-11-27T15:04:23.475Z,4.20
2022-11-27T15:06:27.578Z,4.00
2022-11-27T15:08:34.039Z,3.97
2022-11-27T15:10:39.489Z,3.80
2022-11-27T15:12:49.022Z,4.00
2022-11-27T15:14:58.181Z,3.97
2022-11-27T15:17:00.916Z,4.30
2022-11-27T15:19:05.918Z,3.80
2022-11-27T15:21:12.260Z,4.23
2022-11-27T15:23:18.183Z,4.50
2022-11-27T15:25:36.499Z,3.77
2022-11-27T15:27:48.064Z,4.63
2022-11-27T15:30:09.946Z,4.73
2022-11-27T15:32:23.257Z,4.50
2022-11-27T15:34:26.435Z,4.60
2022-11-27T15:36:40.509Z,4.87
2022-11-27T15:38:45.303Z,4.33
2022-11-27T15:40:59.112Z,5.33
2022-11-27T15:43:01.794Z,5.03
2022-11-27T15:45:06.773Z,4.83
2022-11-27T15:47:23.745Z,5.20
2022-11-27T15:49:26.646Z,5.47
2022-11-27T15:51:30.139Z,5.60
2022-11-27T15:53:33.047Z,5.90
2022-11-27T15:55:36.122Z,5.73
2022-11-27T15:57:38.813Z,5.60
2022-11-27T15:59:41.493Z,6.63
2022-11-27T16:01:45.883Z,6.13
2022-11-27T16:03:48.745Z,6.73
2022-11-27T16:05:51.662Z,5.93
2022-11-27T16:07:55.590Z,6.93
2022-11-27T16:09:58.489Z,6.60
2022-11-27T16:12:01.300Z,6.07
2022-11-27T16:14:04.202Z,6.13
2022-11-27T16:16:09.320Z,7.03
2022-11-27T16:18:13.620Z,6.80
2022-11-27T16:20:16.388Z,6.97
2022-11-27T16:22:19.763Z,7.60
2022-11-27T16:24:22.462Z,7.13
2022-11-27T16:26:25.320Z,7.37
2022-11-27T16:28:28.873Z,7.10
2022-11-27T16:30:31.750Z,7.60
2022-11-27T16:32:37.717Z,7.70
2022-11-27T16:34:42.094Z,7.10
2022-11-27T16:36:45.137Z,7.50
2022-11-27T16:38:48.431Z,7.53
2022-11-27T16:40:51.634Z,7.97
2022-11-27T16:42:54.609Z,8.17
2022-11-27T16:44:57.568Z,8.30
2022-11-27T16:47:00.654Z,7.90
2022-11-27T16:49:06.446Z,7.57
2022-11-27T16:51:13.764Z,7.60
2022-11-27T16:53:16.674Z,7.30
2022-11-27T16:55:19.918Z,8.30
2022-11-27T16:57:22.881Z,7.77
2022-11-27T16:59:25.813Z,8.10
2022-11-27T17:01:30.288Z,10.20
2022-11-27T17:03:33.630Z,8.83
2022-11-27T17:05:41.000Z,9.37
2022-11-27T17:07:45.293Z,8.40
2022-11-27T17:09:48.670Z,8.27
2022-11-27T17:11:51.759Z,8.57
2022-11-27T17:13:59.025Z,7.53
2022-11-27T17:16:02.293Z,7.50
2022-11-27T17:18:05.271Z,7.73
2022-11-27T17:20:10.058Z,8.60
2022-11-27T17:22:14.320Z,8.20
2022-11-27T17:24:18.592Z,8.93
2022-11-27T17:26:23.463Z,8.27
2022-11-27T17:28:26.166Z,8.23
2022-11-27T17:30:29.339Z,8.37
2022-11-27T17:32:32.241Z,8.17
2022-11-27T17:34:35.102Z,8.20
2022-11-27T17:36:38.710Z,8.47
2022-11-27T17:38:41.535Z,9.17
2022-11-27T17:40:45.785Z,9.93
2022-11-27T17:42:48.899Z,10.20
2022-11-27T17:44:51.742Z,9.47
2022-11-27T17:46:54.697Z,9.80
2022-11-27T17:49:00.042Z,9.13
2022-11-27T17:51:03.148Z,9.33
2022-11-27T17:53:06.015Z,9.23
2022-11-27T17:55:09.390Z,8.67
2022-11-27T17:57:13.589Z,8.60
2022-11-27T17:59:16.568Z,8.93
2022-11-27T18:01:22.074Z,9.07
2022-11-27T18:03:25.022Z,9.07
2022-11-27T18:05:27.955Z,9.67
2022-11-27T18:07:30.753Z,9.20
2022-11-27T18:09:33.476Z,9.47
2022-11-27T18:11:36.175Z,8.47
2022-11-27T18:13:40.477Z,9.40
2022-11-27T18:15:44.085Z,9.80
2022-11-27T18:17:46.809Z,9.33
2022-11-27T18:19:52.095Z,9.20
2022-11-27T18:21:54.894Z,8.93
2022-11-27T18:24:22.624Z,8.90
2022-11-27T18:26:39.326Z,8.90
2022-11-27T18:28:48.116Z,9.43
2022-11-27T18:30:50.773Z,9.67
2022-11-27T18:32:53.862Z,9.30
2022-11-27T18:34:56.781Z,8.60
2022-11-27T18:37:01.121Z,8.00
2022-11-27T18:39:05.498Z,9.03
2022-11-27T18:41:09.736Z,8.67
2022-11-27T18:43:12.685Z,8.47
2022-11-27T18:45:32.857Z,8.87
2022-11-27T18:47:36.223Z,8.43
2022-11-27T18:49:39.783Z,8.87
2022-11-27T18:51:42.933Z,8.53
2022-11-27T18:53:45.793Z,8.37
2022-11-27T18:55:52.661Z,9.03
2022-11-27T18:57:55.876Z,9.17
2022-11-27T19:00:03.522Z,8.53
2022-11-27T19:02:08.105Z,9.00
2022-11-27T19:04:12.349Z,9.10
2022-11-27T19:06:17.849Z,9.57
2022-11-27T19:08:20.846Z,10.10
2022-11-27T19:10:23.965Z,9.77
2022-11-27T19:12:26.687Z,9.83
2022-11-27T19:14:29.650Z,9.93
2022-11-27T19:16:34.337Z,10.53
2022-11-27T19:18:38.865Z,10.53
2022-11-27T19:20:41.790Z,10.07
2022-11-27T19:22:44.710Z,10.37
2022-11-27T19:24:47.472Z,10.50
2022-11-27T19:26:50.585Z,10.70
2022-11-27T19:28:55.296Z,10.43
2022-11-27T19:30:58.594Z,9.90
2022-11-27T19:33:01.542Z,10.47
2022-11-27T19:35:10.520Z,10.20
2022-11-27T19:37:13.236Z,9.40
2022-11-27T19:39:16.811Z,10.47
2022-11-27T19:41:20.334Z,11.10
2022-11-27T19:43:23.186Z,10.60
2022-11-27T19:45:26.355Z,10.27
2022-11-27T19:47:29.372Z,10.20
2022-11-27T19:49:32.370Z,10.43
2022-11-27T19:51:38.656Z,9.80
2022-11-27T19:53:42.538Z,10.40
2022-11-27T19:55:45.602Z,11.27
2022-11-27T19:57:48.425Z,10.80
2022-11-27T19:59:51.405Z,11.37
2022-11-27T20:01:54.503Z,11.07
2022-11-27T20:03:59.816Z,11.37
2022-11-27T20:06:05.029Z,10.50
2022-11-27T20:08:09.131Z,11.10
2022-11-27T20:10:12.720Z,11.00
2022-11-27T20:12:15.482Z,10.77
2022-11-27T20:14:19.279Z,10.90
2022-11-27T20:16:22.631Z,10.37
2022-11-27T20:18:26.334Z,10.73
2022-11-27T20:20:33.960Z,10.40
2022-11-27T20:22:36.970Z,11.17
2022-11-27T20:25:04.145Z,10.70
2022-11-27T20:27:03.988Z,12.37
2022-11-27T20:29:07.302Z,10.43
2022-11-27T20:31:15.569Z,10.13
2022-11-27T20:33:19.582Z,10.33
2022-11-27T20:35:22.406Z,10.47
2022-11-27T20:37:25.404Z,11.03
2022-11-27T20:39:28.361Z,9.97
2022-11-27T20:41:32.601Z,10.40
2022-11-27T20:43:35.899Z,9.90
2022-11-27T20:45:39.782Z,10.00
2022-11-27T20:47:42.474Z,10.07
2022-11-27T20:49:45.465Z,10.77
2022-11-27T20:51:50.301Z,10.27
2022-11-27T20:53:53.135Z,10.37
2022-11-27T20:55:56.121Z,10.40
2022-11-27T20:58:00.588Z,9.90
2022-11-27T21:00:03.974Z,10.10
2022-11-27T21:02:06.846Z,10.43
2022-11-27T21:04:18.242Z,10.37
2022-11-27T21:06:23.533Z,10.97
2022-11-27T21:08:26.324Z,10.10
2022-11-27T21:10:29.187Z,10.90
2022-11-27T21:12:32.741Z,10.70
2022-11-27T21:14:37.056Z,10.20
2022-11-27T21:16:42.814Z,11.20
2022-11-27T21:18:45.661Z,10.27
2022-11-27T21:20:48.609Z,10.33
2022-11-27T21:22:51.742Z,10.63
2022-11-27T21:24:54.570Z,10.73
2022-11-27T21:26:57.363Z,10.97
2022-11-27T21:29:00.089Z,11.10
2022-11-27T21:31:09.066Z,10.63
2022-11-27T21:33:11.966Z,10.67
2022-11-27T21:35:15.198Z,11.23
2022-11-27T21:37:18.094Z,10.93
2022-11-27T21:39:21.143Z,10.77
2022-11-27T21:41:23.897Z,10.83
2022-11-27T21:43:31.602Z,10.90
2022-11-27T21:45:37.315Z,10.83
2022-11-27T21:47:41.666Z,10.83
2022-11-27T21:49:44.646Z,10.53
2022-11-27T21:51:47.676Z,11.10
2022-11-27T21:53:52.453Z,10.70
2022-11-27T21:55:55.345Z,11.47
2022-11-27T21:57:58.250Z,11.17
2022-11-27T22:00:00.927Z,11.80
2022-11-27T22:02:03.943Z,11.43
2022-11-27T22:04:08.529Z,11.90
2022-11-27T22:06:13.407Z,11.80
2022-11-27T22:08:16.168Z,12.07
2022-11-27T22:10:19.474Z,11.63
2022-11-27T22:12:22.147Z,12.27
2022-11-27T22:14:24.868Z,12.60
2022-11-27T22:16:29.903Z,11.93
2022-11-27T22:18:32.611Z,11.53
2022-11-27T22:20:37.276Z,11.77
2022-11-27T22:22:40.028Z,12.10
2022-11-27T22:24:43.135Z,12.47
2022-11-27T22:26:46.183Z,11.43
2022-11-27T22:28:49.543Z,11.50
2022-11-27T22:30:52.273Z,11.67
2022-11-27T22:32:55.463Z,11.43
2022-11-27T22:34:58.170Z,11.50
2022-11-27T22:37:03.644Z,11.47
2022-11-27T22:39:08.654Z,12.73
2022-11-27T22:41:12.368Z,13.07
2022-11-27T22:43:15.221Z,12.50
2022-11-27T22:45:17.950Z,11.93
2022-11-27T22:47:20.916Z,11.73
2022-11-27T22:49:23.644Z,13.03
2022-11-27T22:51:27.862Z,11.43
2022-11-27T22:53:32.204Z,12.40
2022-11-27T22:55:36.259Z,12.50
2022-11-27T22:57:39.269Z,12.77
2022-11-27T22:59:42.067Z,12.33
2022-11-27T23:01:44.875Z,13.27
2022-11-27T23:03:47.636Z,11.97
2022-11-27T23:05:50.898Z,12.17
2022-11-27T23:07:53.681Z,12.20
2022-11-27T23:09:57.773Z,12.57
2022-11-27T23:12:01.017Z,12.10
2022-11-27T23:14:03.761Z,12.13
2022-11-27T23:16:08.459Z,12.07
2022-11-27T23:18:12.022Z,12.37
2022-11-27T23:20:14.898Z,12.17
2022-11-27T23:22:17.659Z,11.60
2022-11-27T23:24:21.619Z,10.97
2022-11-27T23:26:25.949Z,11.70
2022-11-27T23:28:28.765Z,11.83
2022-11-27T23:30:32.321Z,11.43
2022-11-27T23:32:35.297Z,12.20
2022-11-27T23:34:38.021Z,12.07
2022-11-27T23:36:41.225Z,12.23
2022-11-27T23:38:44.343Z,12.73
2022-11-27T23:40:47.007Z,12.47
2022-11-27T23:42:51.702Z,12.83
2022-11-27T23:44:54.598Z,12.40
2022-11-27T23:46:57.315Z,12.50
2022-11-27T23:49:01.053Z,13.60
2022-11-27T23:51:08.250Z,12.50
2022-11-27T23:53:11.100Z,12.17
2022-11-27T23:55:14.217Z,13.23
2022-11-27T23:57:17.034Z,13.00
2022-11-27T23:59:21.170Z,13.47
